CheckWX is a tool to help pilots better visualize weather data.  It is not intended as a substitute for an official pre-flight weather briefing.

19:23:05 UTC

EGPK METAR
Glasgow Prestwick Airport
Glasgow, United Kingdom
Current

33 mins ago

EGPK 201850Z 09006KT 9999 BKN026 06/02 Q1008
Observed
Nov-20 @ 18:50 UTC
Wind
  • 090° at 6 KTS
Visibility
10,000+ meters
Flight Rules
MVFR
Cloud Levels
  • Broken at 2,600' AGL
Temperature
C / 43°F
Dewpoint
C / 36°F
Humidity
76%
Altimeter
29.76" Hg
Pressure
1007.92 hPa
Previous

1 hour ago

EGPK 201820Z 09011KT 9999 BKN026 06/02 Q1008
Observed
Nov-20 @ 18:20 UTC
Wind
  • 090° at 11 KTS
Visibility
10,000+ meters
Flight Rules
MVFR
Cloud Levels
  • Broken at 2,600' AGL
Temperature
C / 43°F
Dewpoint
C / 36°F
Humidity
76%
Altimeter
29.76" Hg
Pressure
1007.92 hPa
Previous

2 hours ago

EGPK 201750Z 10008KT 9999 BKN026 07/03 Q1008
Observed
Nov-20 @ 17:50 UTC
Wind
  • 100° at 8 KTS
Visibility
10,000+ meters
Flight Rules
MVFR
Cloud Levels
  • Broken at 2,600' AGL
Temperature
C / 45°F
Dewpoint
C / 37°F
Humidity
76%
Altimeter
29.76" Hg
Pressure
1007.92 hPa